createdAt,value
2022-09-12T00:03:41.993Z,5.23
2022-09-12T00:08:44.631Z,6.30
2022-09-12T00:13:47.689Z,5.17
2022-09-12T00:18:50.531Z,6.80
2022-09-12T00:23:53.243Z,6.13
2022-09-12T00:28:55.638Z,8.50
2022-09-12T00:34:02.940Z,8.33
2022-09-12T00:39:06.349Z,5.90
2022-09-12T00:44:24.236Z,9.63
2022-09-12T00:49:32.877Z,6.07
2022-09-12T00:55:01.913Z,9.03
2022-09-12T01:00:16.673Z,6.00
2022-09-12T01:05:20.430Z,7.73
2022-09-12T01:10:23.971Z,7.20
2022-09-12T01:15:26.737Z,10.53
2022-09-12T01:21:01.102Z,11.13
2022-09-12T01:26:21.300Z,7.23
2022-09-12T01:31:54.299Z,8.03
2022-09-12T01:37:17.082Z,7.07
2022-09-12T01:42:40.415Z,9.40
2022-09-12T01:48:21.263Z,11.00
2022-09-12T01:53:28.493Z,6.97
2022-09-12T01:58:45.395Z,7.37
2022-09-12T02:04:09.318Z,7.07
2022-09-12T02:09:19.833Z,10.40
2022-09-12T02:14:26.660Z,10.87
2022-09-12T02:19:36.487Z,11.37
2022-09-12T02:24:43.124Z,9.00
2022-09-12T02:29:46.105Z,6.27
2022-09-12T02:35:03.310Z,6.40
2022-09-12T02:40:08.957Z,8.10
2022-09-12T02:45:12.691Z,12.10
2022-09-12T02:50:15.231Z,7.70
2022-09-12T02:55:17.858Z,8.57
2022-09-12T03:00:20.616Z,8.87
2022-09-12T03:05:59.972Z,8.53
2022-09-12T03:11:18.534Z,7.77
2022-09-12T03:16:51.965Z,9.60
2022-09-12T03:22:23.108Z,12.73
2022-09-12T03:27:52.520Z,11.60
2022-09-12T03:32:55.605Z,13.07
2022-09-12T03:37:57.987Z,7.23
2022-09-12T03:43:00.411Z,7.73
2022-09-12T03:48:03.930Z,12.90
2022-09-12T03:53:06.289Z,12.50
2022-09-12T03:58:08.620Z,9.97
2022-09-12T04:03:11.039Z,10.47
2022-09-12T04:08:14.383Z,11.00
2022-09-12T04:13:16.751Z,9.30
2022-09-12T04:18:19.109Z,12.00
2022-09-12T04:23:21.473Z,9.63
2022-09-12T04:28:24.566Z,8.47
2022-09-12T04:33:27.016Z,9.63
2022-09-12T04:38:29.354Z,10.67
2022-09-12T04:43:31.688Z,8.60
2022-09-12T04:48:34.056Z,11.13
2022-09-12T04:53:37.161Z,9.97
2022-09-12T04:58:39.847Z,9.73
2022-09-12T05:03:43.605Z,10.17
2022-09-12T05:08:46.561Z,8.57
2022-09-12T05:13:49.373Z,10.50
2022-09-12T05:18:51.894Z,10.33
2022-09-12T05:23:56.192Z,11.50
2022-09-12T05:28:58.703Z,7.87
2022-09-12T05:34:01.641Z,8.67
2022-09-12T05:39:04.692Z,9.70
2022-09-12T05:44:12.089Z,7.70
2022-09-12T05:49:14.743Z,8.37
2022-09-12T05:54:20.280Z,11.70
2022-09-12T05:59:24.077Z,7.03
2022-09-12T06:04:28.218Z,7.00
2022-09-12T06:09:30.620Z,7.43
2022-09-12T06:14:33.329Z,7.50
2022-09-12T06:19:35.759Z,9.03
2022-09-12T06:24:38.406Z,7.43
2022-09-12T06:29:40.813Z,7.93
2022-09-12T06:34:43.182Z,9.20
2022-09-12T06:39:46.943Z,6.33
2022-09-12T06:44:50.520Z,8.60
2022-09-12T06:49:52.863Z,12.47
2022-09-12T06:54:55.227Z,6.83
2022-09-12T06:59:57.580Z,8.93
2022-09-12T07:05:00.153Z,8.50
2022-09-12T07:10:02.625Z,9.27
2022-09-12T07:15:05.784Z,10.20
2022-09-12T07:20:08.626Z,9.77
2022-09-12T07:25:11.046Z,6.93
2022-09-12T07:30:13.416Z,11.67
2022-09-12T07:35:15.981Z,5.63
2022-09-12T07:40:18.519Z,10.83
2022-09-12T07:45:20.994Z,4.47
2022-09-12T07:50:23.898Z,4.00
2022-09-12T07:55:27.097Z,4.17
2022-09-12T08:00:35.878Z,4.33
2022-09-12T08:05:38.659Z,5.37
2022-09-12T08:10:41.169Z,3.70
2022-09-12T08:15:43.737Z,3.90
2022-09-12T08:20:46.134Z,3.43
2022-09-12T08:25:48.499Z,3.63
2022-09-12T08:30:51.049Z,3.40
2022-09-12T08:35:53.474Z,2.90
2022-09-12T08:41:05.225Z,3.97
2022-09-12T08:46:21.960Z,3.23
2022-09-12T08:51:24.944Z,4.30
2022-09-12T08:56:31.933Z,7.20
2022-09-12T09:01:45.596Z,2.70
2022-09-12T09:07:09.437Z,2.43
2022-09-12T09:12:29.743Z,3.00
2022-09-12T09:17:38.826Z,5.03
2022-09-12T09:22:46.964Z,2.80
2022-09-12T09:27:58.722Z,4.30
2022-09-12T09:33:03.681Z,16.07
2022-09-12T09:38:44.986Z,5.07
2022-09-12T09:43:47.604Z,3.30
2022-09-12T09:48:51.266Z,3.30
2022-09-12T09:54:11.413Z,5.87
2022-09-12T10:27:16.636Z,2.53
2022-09-12T10:32:31.075Z,2.20
2022-09-12T10:37:41.248Z,3.23
2022-09-12T10:42:55.354Z,1.83
2022-09-12T10:48:07.522Z,4.10
2022-09-12T10:53:23.343Z,2.47
2022-09-12T10:58:56.899Z,1.37
2022-09-12T11:04:23.835Z,1.63
2022-09-12T11:09:43.048Z,1.67
2022-09-12T11:21:09.435Z,3.33
2022-09-12T11:26:20.459Z,1.60
2022-09-12T11:31:23.094Z,2.93
2022-09-12T11:36:46.619Z,2.83
2022-09-12T11:41:57.659Z,3.67
2022-09-12T11:47:04.817Z,3.10
2022-09-12T11:52:13.416Z,3.90
2022-09-12T11:57:41.546Z,3.07
2022-09-12T12:03:00.492Z,3.00
2022-09-12T12:08:05.975Z,1.70
2022-09-12T12:13:19.397Z,4.17
2022-09-12T12:18:26.942Z,3.33
2022-09-12T12:23:34.940Z,4.13
2022-09-12T12:28:44.273Z,2.10
2022-09-12T12:33:46.659Z,4.43
2022-09-12T12:38:49.006Z,3.17
2022-09-12T12:43:53.339Z,3.73
2022-09-12T12:49:26.947Z,4.87
2022-09-12T12:54:51.374Z,4.23
2022-09-12T13:00:30.986Z,4.47
2022-09-12T13:05:40.922Z,4.37
2022-09-12T13:10:58.024Z,3.60
2022-09-12T13:16:00.523Z,3.43
2022-09-12T13:21:18.004Z,3.47
2022-09-12T13:26:27.908Z,2.57
2022-09-12T13:31:30.699Z,3.40
2022-09-12T13:36:38.964Z,3.67
2022-09-12T13:41:44.139Z,4.47
2022-09-12T13:46:47.530Z,1.93
2022-09-12T13:52:01.947Z,1.70
2022-09-12T13:57:04.879Z,2.60
2022-09-12T14:02:43.253Z,1.93
2022-09-12T14:07:56.331Z,2.60
2022-09-12T14:13:01.976Z,4.73
2022-09-12T14:18:06.858Z,2.43
2022-09-12T14:23:30.820Z,1.80
2022-09-12T14:28:37.683Z,2.10
2022-09-12T14:33:48.734Z,3.33
2022-09-12T14:38:55.196Z,3.50
2022-09-12T14:44:05.281Z,3.43
2022-09-12T14:49:09.505Z,2.90
2022-09-12T14:54:37.364Z,4.03
2022-09-12T14:59:40.928Z,2.53
2022-09-12T15:04:47.680Z,2.70
2022-09-12T15:09:50.398Z,4.33
2022-09-12T15:14:52.980Z,1.53
2022-09-12T15:19:55.562Z,1.43
2022-09-12T15:24:58.057Z,2.80
2022-09-12T15:30:00.587Z,2.57
2022-09-12T15:35:03.767Z,2.23
2022-09-12T15:40:06.922Z,1.07
2022-09-12T15:45:30.626Z,1.93
2022-09-12T15:50:33.291Z,6.00
2022-09-12T15:55:35.837Z,3.23
2022-09-12T16:00:38.562Z,1.63
2022-09-12T16:05:41.510Z,2.00
2022-09-12T16:10:45.094Z,3.93
2022-09-12T16:15:47.814Z,3.03
2022-09-12T16:20:56.654Z,2.90
2022-09-12T16:26:01.659Z,4.00
2022-09-12T16:31:05.881Z,2.80
2022-09-12T16:36:14.320Z,4.57
2022-09-12T16:41:19.270Z,3.03
2022-09-12T16:46:28.862Z,7.17
2022-09-12T16:51:35.971Z,8.07
2022-09-12T16:56:38.654Z,4.33
2022-09-12T17:01:41.545Z,2.60
2022-09-12T17:06:44.396Z,2.57
2022-09-12T17:11:47.881Z,2.50
2022-09-12T17:16:52.047Z,3.70
2022-09-12T17:21:55.462Z,4.53
2022-09-12T17:26:59.387Z,4.07
2022-09-12T17:32:02.243Z,2.33
2022-09-12T17:37:04.831Z,2.73
2022-09-12T17:42:08.709Z,5.27
2022-09-12T20:31:13.997Z,13.97
2022-09-12T21:54:23.202Z,8.00
2022-09-12T22:25:58.685Z,13.23
2022-09-12T22:32:09.463Z,7.30
2022-09-12T23:03:11.906Z,8.37
2022-09-12T23:09:14.722Z,9.33
2022-09-12T23:21:43.882Z,7.73
2022-09-12T23:46:46.389Z,10.50
